sensor_id;sensor_type;location;lat;lon;timestamp;temperature;humidity
21698;DHT22;11010;49.548;11.926;2023-02-27T00:00:18;0.20;99.90
21698;DHT22;11010;49.548;11.926;2023-02-27T00:02:47;0.10;99.90
21698;DHT22;11010;49.548;11.926;2023-02-27T00:05:15;0.20;99.90
21698;DHT22;11010;49.548;11.926;2023-02-27T00:07:42;0.20;99.90
21698;DHT22;11010;49.548;11.926;2023-02-27T00:10:13;0.20;99.90
21698;DHT22;11010;49.548;11.926;2023-02-27T00:12:41;0.00;99.90
21698;DHT22;11010;49.548;11.926;2023-02-27T00:15:11;0.10;99.90
21698;DHT22;11010;49.548;11.926;2023-02-27T00:17:39;0.10;99.90
21698;DHT22;11010;49.548;11.926;2023-02-27T00:20:09;-0.10;99.90
21698;DHT22;11010;49.548;11.926;2023-02-27T00:22:39;0.00;99.90
21698;DHT22;11010;49.548;11.926;2023-02-27T00:25:07;-0.30;99.90
21698;DHT22;11010;49.548;11.926;2023-02-27T00:27:35;-0.20;99.90
21698;DHT22;11010;49.548;11.926;2023-02-27T00:30:04;-0.40;99.90
21698;DHT22;11010;49.548;11.926;2023-02-27T00:32:31;-0.30;99.90
21698;DHT22;11010;49.548;11.926;2023-02-27T00:35:00;-0.40;99.90
21698;DHT22;11010;49.548;11.926;2023-02-27T00:37:27;-0.30;99.90
21698;DHT22;11010;49.548;11.926;2023-02-27T00:39:54;-0.30;99.90
21698;DHT22;11010;49.548;11.926;2023-02-27T00:42:21;-0.20;99.90
21698;DHT22;11010;49.548;11.926;2023-02-27T00:44:48;-0.20;99.90
21698;DHT22;11010;49.548;11.926;2023-02-27T00:47:15;-0.10;99.90
21698;DHT22;11010;49.548;11.926;2023-02-27T00:49:42;-0.30;99.90
21698;DHT22;11010;49.548;11.926;2023-02-27T00:52:09;-0.50;99.90
21698;DHT22;11010;49.548;11.926;2023-02-27T00:54:36;-0.40;99.90
21698;DHT22;11010;49.548;11.926;2023-02-27T00:57:03;-0.40;99.90
21698;DHT22;11010;49.548;11.926;2023-02-27T00:59:30;-0.50;99.90
21698;DHT22;11010;49.548;11.926;2023-02-27T01:01:57;-0.60;99.90
21698;DHT22;11010;49.548;11.926;2023-02-27T01:04:27;-0.50;99.90
21698;DHT22;11010;49.548;11.926;2023-02-27T01:06:54;-0.70;99.90
21698;DHT22;11010;49.548;11.926;2023-02-27T01:09:21;-0.80;99.90
21698;DHT22;11010;49.548;11.926;2023-02-27T01:11:51;-0.90;99.90
21698;DHT22;11010;49.548;11.926;2023-02-27T01:14:18;-0.90;99.90
21698;DHT22;11010;49.548;11.926;2023-02-27T01:16:45;-1.00;99.90
21698;DHT22;11010;49.548;11.926;2023-02-27T01:19:14;-1.00;99.90
21698;DHT22;11010;49.548;11.926;2023-02-27T01:21:42;-0.70;99.90
21698;DHT22;11010;49.548;11.926;2023-02-27T01:24:10;-0.70;99.90
21698;DHT22;11010;49.548;11.926;2023-02-27T01:26:37;-0.60;99.90
21698;DHT22;11010;49.548;11.926;2023-02-27T01:29:04;-0.70;99.90
21698;DHT22;11010;49.548;11.926;2023-02-27T01:31:32;-0.60;99.90
21698;DHT22;11010;49.548;11.926;2023-02-27T01:34:00;-0.60;99.90
21698;DHT22;11010;49.548;11.926;2023-02-27T01:36:27;-1.20;99.90
21698;DHT22;11010;49.548;11.926;2023-02-27T01:38:54;-1.00;99.90
21698;DHT22;11010;49.548;11.926;2023-02-27T01:41:21;-0.90;99.90
21698;DHT22;11010;49.548;11.926;2023-02-27T01:44:09;-0.90;99.90
21698;DHT22;11010;49.548;11.926;2023-02-27T01:46:37;-0.80;99.90
21698;DHT22;11010;49.548;11.926;2023-02-27T01:49:13;-0.70;99.90
21698;DHT22;11010;49.548;11.926;2023-02-27T01:51:56;-0.90;99.90
21698;DHT22;11010;49.548;11.926;2023-02-27T01:54:29;-1.20;99.90
21698;DHT22;11010;49.548;11.926;2023-02-27T01:56:57;-1.00;99.90
21698;DHT22;11010;49.548;11.926;2023-02-27T01:59:25;-0.90;99.90
21698;DHT22;11010;49.548;11.926;2023-02-27T02:01:52;-0.80;99.90
21698;DHT22;11010;49.548;11.926;2023-02-27T02:06:48;-1.20;99.90
21698;DHT22;11010;49.548;11.926;2023-02-27T02:09:19;-1.20;99.90
21698;DHT22;11010;49.548;11.926;2023-02-27T02:11:47;-1.30;99.90
21698;DHT22;11010;49.548;11.926;2023-02-27T02:14:16;-1.30;99.90
21698;DHT22;11010;49.548;11.926;2023-02-27T02:36:48;-1.40;99.90
21698;DHT22;11010;49.548;11.926;2023-02-27T02:47:31;-1.30;99.90
21698;DHT22;11010;49.548;11.926;2023-02-27T02:52:54;-1.50;99.90
21698;DHT22;11010;49.548;11.926;2023-02-27T02:55:41;-1.60;99.90
21698;DHT22;11010;49.548;11.926;2023-02-27T03:00:49;-1.80;99.90
21698;DHT22;11010;49.548;11.926;2023-02-27T03:03:27;-1.70;99.90
21698;DHT22;11010;49.548;11.926;2023-02-27T03:06:02;-1.70;99.90
21698;DHT22;11010;49.548;11.926;2023-02-27T03:08:34;-1.90;99.90
21698;DHT22;11010;49.548;11.926;2023-02-27T03:11:04;-1.70;99.90
21698;DHT22;11010;49.548;11.926;2023-02-27T03:13:56;-1.50;99.90
21698;DHT22;11010;49.548;11.926;2023-02-27T03:16:53;-1.60;99.90
21698;DHT22;11010;49.548;11.926;2023-02-27T03:19:24;-1.30;99.90
21698;DHT22;11010;49.548;11.926;2023-02-27T03:22:16;-1.10;99.90
21698;DHT22;11010;49.548;11.926;2023-02-27T03:24:52;-1.10;99.90
21698;DHT22;11010;49.548;11.926;2023-02-27T03:27:21;-0.90;99.90
21698;DHT22;11010;49.548;11.926;2023-02-27T03:30:04;-0.90;99.90
21698;DHT22;11010;49.548;11.926;2023-02-27T03:35:10;-1.00;99.90
21698;DHT22;11010;49.548;11.926;2023-02-27T03:40:35;-1.10;99.90
21698;DHT22;11010;49.548;11.926;2023-02-27T03:43:16;-1.10;99.90
21698;DHT22;11010;49.548;11.926;2023-02-27T03:46:06;-1.20;99.90
21698;DHT22;11010;49.548;11.926;2023-02-27T03:48:36;-1.20;99.90
21698;DHT22;11010;49.548;11.926;2023-02-27T03:51:04;-1.10;99.90
21698;DHT22;11010;49.548;11.926;2023-02-27T03:59:19;-1.40;99.90
21698;DHT22;11010;49.548;11.926;2023-02-27T04:01:51;-1.40;99.90
21698;DHT22;11010;49.548;11.926;2023-02-27T04:04:19;-1.50;99.90
21698;DHT22;11010;49.548;11.926;2023-02-27T04:07:14;-1.50;99.90
21698;DHT22;11010;49.548;11.926;2023-02-27T04:18:23;-1.60;99.90
21698;DHT22;11010;49.548;11.926;2023-02-27T04:20:57;-1.70;99.90
21698;DHT22;11010;49.548;11.926;2023-02-27T04:23:40;-1.60;99.90
21698;DHT22;11010;49.548;11.926;2023-02-27T04:31:58;-1.60;99.90
21698;DHT22;11010;49.548;11.926;2023-02-27T04:34:47;-1.70;99.90
21698;DHT22;11010;49.548;11.926;2023-02-27T04:37:21;-1.60;99.90
21698;DHT22;11010;49.548;11.926;2023-02-27T04:39:55;-1.50;99.90
21698;DHT22;11010;49.548;11.926;2023-02-27T04:53:31;-1.80;99.90
21698;DHT22;11010;49.548;11.926;2023-02-27T04:56:07;-1.70;99.90
21698;DHT22;11010;49.548;11.926;2023-02-27T04:58:41;-1.60;99.90
21698;DHT22;11010;49.548;11.926;2023-02-27T05:01:18;-1.60;99.90
21698;DHT22;11010;49.548;11.926;2023-02-27T05:03:48;-1.80;99.90
21698;DHT22;11010;49.548;11.926;2023-02-27T05:06:17;-1.50;99.90
21698;DHT22;11010;49.548;11.926;2023-02-27T05:09:13;-1.60;99.90
21698;DHT22;11010;49.548;11.926;2023-02-27T05:11:42;-1.50;99.90
21698;DHT22;11010;49.548;11.926;2023-02-27T05:19:30;-1.90;99.90
21698;DHT22;11010;49.548;11.926;2023-02-27T05:25:00;-1.70;99.90
21698;DHT22;11010;49.548;11.926;2023-02-27T05:27:50;-1.60;99.90
21698;DHT22;11010;49.548;11.926;2023-02-27T05:30:27;-1.80;99.90
21698;DHT22;11010;49.548;11.926;2023-02-27T05:35:35;-1.70;99.90
21698;DHT22;11010;49.548;11.926;2023-02-27T05:38:11;-1.80;99.90
21698;DHT22;11010;49.548;11.926;2023-02-27T05:40:54;-1.80;99.90
21698;DHT22;11010;49.548;11.926;2023-02-27T05:43:27;-1.90;99.90
21698;DHT22;11010;49.548;11.926;2023-02-27T05:45:58;-2.00;99.90
21698;DHT22;11010;49.548;11.926;2023-02-27T05:48:29;-1.90;99.90
21698;DHT22;11010;49.548;11.926;2023-02-27T05:50:58;-1.90;99.90
21698;DHT22;11010;49.548;11.926;2023-02-27T05:53:29;-1.80;99.90
21698;DHT22;11010;49.548;11.926;2023-02-27T05:56:00;-1.90;99.90
21698;DHT22;11010;49.548;11.926;2023-02-27T05:58:38;-1.70;99.90
21698;DHT22;11010;49.548;11.926;2023-02-27T06:01:08;-2.00;99.90
21698;DHT22;11010;49.548;11.926;2023-02-27T06:03:37;-1.70;99.90
21698;DHT22;11010;49.548;11.926;2023-02-27T06:06:07;-1.60;99.90
21698;DHT22;11010;49.548;11.926;2023-02-27T06:08:37;-1.60;99.90
21698;DHT22;11010;49.548;11.926;2023-02-27T06:11:04;-1.60;99.90
21698;DHT22;11010;49.548;11.926;2023-02-27T06:13:31;-1.70;99.90
21698;DHT22;11010;49.548;11.926;2023-02-27T06:15:59;-1.80;99.90
21698;DHT22;11010;49.548;11.926;2023-02-27T06:18:26;-1.80;99.90
21698;DHT22;11010;49.548;11.926;2023-02-27T06:20:53;-1.90;99.90
21698;DHT22;11010;49.548;11.926;2023-02-27T06:23:20;-2.00;99.90
21698;DHT22;11010;49.548;11.926;2023-02-27T06:25:48;-2.10;99.90
21698;DHT22;11010;49.548;11.926;2023-02-27T06:28:15;-2.20;99.90
21698;DHT22;11010;49.548;11.926;2023-02-27T06:30:42;-2.20;99.90
21698;DHT22;11010;49.548;11.926;2023-02-27T06:33:12;-2.20;99.90
21698;DHT22;11010;49.548;11.926;2023-02-27T06:35:39;-2.30;99.90
21698;DHT22;11010;49.548;11.926;2023-02-27T06:38:06;-2.20;99.90
21698;DHT22;11010;49.548;11.926;2023-02-27T06:40:33;-2.40;99.90
21698;DHT22;11010;49.548;11.926;2023-02-27T06:43:00;-2.40;99.90
21698;DHT22;11010;49.548;11.926;2023-02-27T06:45:27;-2.20;99.90
21698;DHT22;11010;49.548;11.926;2023-02-27T06:47:54;-2.00;99.90
21698;DHT22;11010;49.548;11.926;2023-02-27T06:50:22;-1.80;99.90
21698;DHT22;11010;49.548;11.926;2023-02-27T06:52:49;-1.80;99.90
21698;DHT22;11010;49.548;11.926;2023-02-27T06:55:16;-1.80;99.90
21698;DHT22;11010;49.548;11.926;2023-02-27T06:57:48;-1.80;99.90
21698;DHT22;11010;49.548;11.926;2023-02-27T07:00:16;-1.70;99.90
21698;DHT22;11010;49.548;11.926;2023-02-27T07:02:43;-1.60;99.90
21698;DHT22;11010;49.548;11.926;2023-02-27T07:05:10;-1.60;99.90
21698;DHT22;11010;49.548;11.926;2023-02-27T07:07:38;-1.60;99.90
21698;DHT22;11010;49.548;11.926;2023-02-27T07:10:08;-1.70;99.90
21698;DHT22;11010;49.548;11.926;2023-02-27T07:12:38;-1.80;99.90
21698;DHT22;11010;49.548;11.926;2023-02-27T07:15:06;-1.70;99.90
21698;DHT22;11010;49.548;11.926;2023-02-27T07:17:33;-1.70;99.90
21698;DHT22;11010;49.548;11.926;2023-02-27T07:20:01;-1.70;99.90
21698;DHT22;11010;49.548;11.926;2023-02-27T07:22:28;-1.90;99.90
21698;DHT22;11010;49.548;11.926;2023-02-27T07:24:55;-2.10;99.90
21698;DHT22;11010;49.548;11.926;2023-02-27T07:27:22;-2.00;99.90
21698;DHT22;11010;49.548;11.926;2023-02-27T07:29:49;-1.70;99.90
21698;DHT22;11010;49.548;11.926;2023-02-27T07:32:16;-1.90;99.90
21698;DHT22;11010;49.548;11.926;2023-02-27T07:34:43;-1.90;99.90
21698;DHT22;11010;49.548;11.926;2023-02-27T07:37:11;-2.00;99.90
21698;DHT22;11010;49.548;11.926;2023-02-27T07:39:38;-1.80;99.90
21698;DHT22;11010;49.548;11.926;2023-02-27T07:42:05;-2.10;99.90
21698;DHT22;11010;49.548;11.926;2023-02-27T07:44:33;-2.30;99.90
21698;DHT22;11010;49.548;11.926;2023-02-27T07:47:00;-2.10;99.90
21698;DHT22;11010;49.548;11.926;2023-02-27T07:49:27;-1.80;99.90
21698;DHT22;11010;49.548;11.926;2023-02-27T07:51:54;-1.90;99.90
21698;DHT22;11010;49.548;11.926;2023-02-27T07:54:22;-2.00;99.90
21698;DHT22;11010;49.548;11.926;2023-02-27T07:56:49;-1.90;99.90
21698;DHT22;11010;49.548;11.926;2023-02-27T07:59:16;-2.00;99.90
21698;DHT22;11010;49.548;11.926;2023-02-27T08:01:43;-1.90;99.90
21698;DHT22;11010;49.548;11.926;2023-02-27T08:04:10;-1.90;99.90
21698;DHT22;11010;49.548;11.926;2023-02-27T08:06:37;-1.90;99.90
21698;DHT22;11010;49.548;11.926;2023-02-27T08:09:04;-1.90;99.90
21698;DHT22;11010;49.548;11.926;2023-02-27T08:11:32;-1.80;99.90
21698;DHT22;11010;49.548;11.926;2023-02-27T08:13:59;-1.90;99.90
21698;DHT22;11010;49.548;11.926;2023-02-27T08:16:28;-1.80;99.90
21698;DHT22;11010;49.548;11.926;2023-02-27T08:18:57;-1.80;99.90
21698;DHT22;11010;49.548;11.926;2023-02-27T08:21:24;-1.70;99.90
21698;DHT22;11010;49.548;11.926;2023-02-27T08:23:51;-1.70;99.90
21698;DHT22;11010;49.548;11.926;2023-02-27T08:26:20;-1.70;99.90
21698;DHT22;11010;49.548;11.926;2023-02-27T08:28:47;-1.60;99.90
21698;DHT22;11010;49.548;11.926;2023-02-27T08:31:15;-1.70;99.90
21698;DHT22;11010;49.548;11.926;2023-02-27T08:33:42;-1.70;99.90
21698;DHT22;11010;49.548;11.926;2023-02-27T08:36:09;-1.50;99.90
21698;DHT22;11010;49.548;11.926;2023-02-27T08:38:36;-1.50;99.90
21698;DHT22;11010;49.548;11.926;2023-02-27T08:41:04;-1.60;99.90
21698;DHT22;11010;49.548;11.926;2023-02-27T08:43:31;-1.50;99.90
21698;DHT22;11010;49.548;11.926;2023-02-27T08:45:58;-1.50;99.90
21698;DHT22;11010;49.548;11.926;2023-02-27T08:48:26;-1.50;99.90
21698;DHT22;11010;49.548;11.926;2023-02-27T08:50:53;-1.60;99.90
21698;DHT22;11010;49.548;11.926;2023-02-27T08:53:23;-1.50;99.90
21698;DHT22;11010;49.548;11.926;2023-02-27T08:55:50;-1.40;99.90
21698;DHT22;11010;49.548;11.926;2023-02-27T08:58:18;-1.30;99.90
21698;DHT22;11010;49.548;11.926;2023-02-27T09:00:45;-1.40;99.90
21698;DHT22;11010;49.548;11.926;2023-02-27T09:03:13;-1.30;99.90
21698;DHT22;11010;49.548;11.926;2023-02-27T09:05:40;-1.10;99.90
21698;DHT22;11010;49.548;11.926;2023-02-27T09:08:08;-0.90;99.90
21698;DHT22;11010;49.548;11.926;2023-02-27T09:10:35;-0.60;99.90
21698;DHT22;11010;49.548;11.926;2023-02-27T09:13:02;-0.60;99.90
21698;DHT22;11010;49.548;11.926;2023-02-27T09:15:30;-0.50;99.90
21698;DHT22;11010;49.548;11.926;2023-02-27T09:17:58;-0.40;99.90
21698;DHT22;11010;49.548;11.926;2023-02-27T09:20:30;-0.40;99.90
21698;DHT22;11010;49.548;11.926;2023-02-27T09:22:58;-0.40;99.90
21698;DHT22;11010;49.548;11.926;2023-02-27T09:25:26;-0.40;99.90
21698;DHT22;11010;49.548;11.926;2023-02-27T09:27:53;-0.30;99.90
21698;DHT22;11010;49.548;11.926;2023-02-27T09:30:21;-0.20;99.90
21698;DHT22;11010;49.548;11.926;2023-02-27T09:32:49;-0.20;99.90
21698;DHT22;11010;49.548;11.926;2023-02-27T09:35:17;-0.20;99.90
21698;DHT22;11010;49.548;11.926;2023-02-27T09:37:46;0.00;99.90
21698;DHT22;11010;49.548;11.926;2023-02-27T09:40:27;-0.10;99.90
21698;DHT22;11010;49.548;11.926;2023-02-27T09:43:01;-0.10;99.90
21698;DHT22;11010;49.548;11.926;2023-02-27T09:45:33;-0.10;99.90
21698;DHT22;11010;49.548;11.926;2023-02-27T09:48:19;-0.10;99.90
21698;DHT22;11010;49.548;11.926;2023-02-27T09:50:50;-0.10;99.90
21698;DHT22;11010;49.548;11.926;2023-02-27T09:56:00;-0.20;99.90
21698;DHT22;11010;49.548;11.926;2023-02-27T10:02:21;0.00;99.90
21698;DHT22;11010;49.548;11.926;2023-02-27T10:04:39;0.50;99.90
21698;DHT22;11010;49.548;11.926;2023-02-27T10:15:45;0.60;99.90
21698;DHT22;11010;49.548;11.926;2023-02-27T10:18:15;0.70;99.90
21698;DHT22;11010;49.548;11.926;2023-02-27T10:21:06;0.70;99.90
21698;DHT22;11010;49.548;11.926;2023-02-27T10:23:47;0.70;99.90
21698;DHT22;11010;49.548;11.926;2023-02-27T10:26:20;0.80;99.90
21698;DHT22;11010;49.548;11.926;2023-02-27T10:28:48;0.90;99.90
21698;DHT22;11010;49.548;11.926;2023-02-27T10:31:25;0.90;99.90
21698;DHT22;11010;49.548;11.926;2023-02-27T10:33:57;0.80;99.90
21698;DHT22;11010;49.548;11.926;2023-02-27T10:36:25;0.70;99.90
21698;DHT22;11010;49.548;11.926;2023-02-27T10:39:04;0.70;99.90
21698;DHT22;11010;49.548;11.926;2023-02-27T10:41:35;0.80;99.90
21698;DHT22;11010;49.548;11.926;2023-02-27T10:44:03;1.00;99.90
21698;DHT22;11010;49.548;11.926;2023-02-27T10:46:34;0.90;99.90
21698;DHT22;11010;49.548;11.926;2023-02-27T10:49:05;0.90;99.90
21698;DHT22;11010;49.548;11.926;2023-02-27T10:51:36;0.80;99.90
21698;DHT22;11010;49.548;11.926;2023-02-27T10:54:21;0.90;99.90
21698;DHT22;11010;49.548;11.926;2023-02-27T10:56:57;1.00;99.90
21698;DHT22;11010;49.548;11.926;2023-02-27T10:59:31;1.10;99.90
21698;DHT22;11010;49.548;11.926;2023-02-27T11:02:02;1.00;99.90
21698;DHT22;11010;49.548;11.926;2023-02-27T11:04:33;1.00;99.90
21698;DHT22;11010;49.548;11.926;2023-02-27T11:07:04;0.90;99.90
21698;DHT22;11010;49.548;11.926;2023-02-27T11:09:32;1.00;99.90
21698;DHT22;11010;49.548;11.926;2023-02-27T11:12:18;1.00;99.90
21698;DHT22;11010;49.548;11.926;2023-02-27T11:14:53;1.10;99.90
21698;DHT22;11010;49.548;11.926;2023-02-27T11:17:31;1.00;99.90
21698;DHT22;11010;49.548;11.926;2023-02-27T11:20:02;1.00;99.90
21698;DHT22;11010;49.548;11.926;2023-02-27T11:22:32;1.00;99.90
21698;DHT22;11010;49.548;11.926;2023-02-27T11:25:21;1.00;99.90
21698;DHT22;11010;49.548;11.926;2023-02-27T11:27:49;1.10;99.90
21698;DHT22;11010;49.548;11.926;2023-02-27T11:32:54;1.70;99.90
21698;DHT22;11010;49.548;11.926;2023-02-27T11:35:35;1.80;99.90
21698;DHT22;11010;49.548;11.926;2023-02-27T11:38:15;1.80;99.90
21698;DHT22;11010;49.548;11.926;2023-02-27T11:40:53;1.60;99.90
21698;DHT22;11010;49.548;11.926;2023-02-27T11:43:33;1.60;99.90
21698;DHT22;11010;49.548;11.926;2023-02-27T11:46:11;1.50;99.90
21698;DHT22;11010;49.548;11.926;2023-02-27T11:55:01;1.70;99.90
21698;DHT22;11010;49.548;11.926;2023-02-27T11:57:33;1.70;99.90
21698;DHT22;11010;49.548;11.926;2023-02-27T12:00:05;1.70;99.90
21698;DHT22;11010;49.548;11.926;2023-02-27T12:05:31;2.70;99.90
21698;DHT22;11010;49.548;11.926;2023-02-27T12:08:29;2.90;99.90
21698;DHT22;11010;49.548;11.926;2023-02-27T12:11:00;2.90;99.90
21698;DHT22;11010;49.548;11.926;2023-02-27T12:14:10;2.60;99.90
21698;DHT22;11010;49.548;11.926;2023-02-27T12:16:51;2.30;99.90
21698;DHT22;11010;49.548;11.926;2023-02-27T12:22:39;2.10;99.90
21698;DHT22;11010;49.548;11.926;2023-02-27T12:25:34;2.50;99.90
21698;DHT22;11010;49.548;11.926;2023-02-27T12:30:42;2.30;99.90
21698;DHT22;11010;49.548;11.926;2023-02-27T12:36:01;2.40;99.90
21698;DHT22;11010;49.548;11.926;2023-02-27T12:38:29;3.30;99.90
21698;DHT22;11010;49.548;11.926;2023-02-27T12:46:35;3.40;99.90
21698;DHT22;11010;49.548;11.926;2023-02-27T12:49:12;2.80;99.90
21698;DHT22;11010;49.548;11.926;2023-02-27T12:51:45;2.50;99.90
21698;DHT22;11010;49.548;11.926;2023-02-27T13:07:34;4.70;99.90
21698;DHT22;11010;49.548;11.926;2023-02-27T13:10:23;5.30;99.90
21698;DHT22;11010;49.548;11.926;2023-02-27T13:16:28;6.10;99.90
21698;DHT22;11010;49.548;11.926;2023-02-27T13:18:58;6.60;99.90
21698;DHT22;11010;49.548;11.926;2023-02-27T13:21:45;6.30;99.90
21698;DHT22;11010;49.548;11.926;2023-02-27T13:24:17;5.30;99.90
21698;DHT22;11010;49.548;11.926;2023-02-27T13:26:57;4.50;99.90
21698;DHT22;11010;49.548;11.926;2023-02-27T13:32:25;3.90;99.90
21698;DHT22;11010;49.548;11.926;2023-02-27T13:35:33;4.40;99.90
21698;DHT22;11010;49.548;11.926;2023-02-27T13:43:57;3.90;99.90
21698;DHT22;11010;49.548;11.926;2023-02-27T13:46:28;3.30;99.90
21698;DHT22;11010;49.548;11.926;2023-02-27T13:59:34;2.90;99.90
21698;DHT22;11010;49.548;11.926;2023-02-27T14:04:47;2.70;99.90
21698;DHT22;11010;49.548;11.926;2023-02-27T14:07:24;2.60;99.90
21698;DHT22;11010;49.548;11.926;2023-02-27T14:12:31;2.50;99.90
21698;DHT22;11010;49.548;11.926;2023-02-27T14:17:46;2.40;99.90
21698;DHT22;11010;49.548;11.926;2023-02-27T14:28:33;2.10;99.90
21698;DHT22;11010;49.548;11.926;2023-02-27T14:31:04;2.80;99.90
21698;DHT22;11010;49.548;11.926;2023-02-27T14:33:50;3.60;99.90
21698;DHT22;11010;49.548;11.926;2023-02-27T14:36:23;4.00;99.90
21698;DHT22;11010;49.548;11.926;2023-02-27T14:38:54;4.30;99.90
21698;DHT22;11010;49.548;11.926;2023-02-27T14:44:45;4.60;99.90
21698;DHT22;11010;49.548;11.926;2023-02-27T14:47:33;4.50;99.90
21698;DHT22;11010;49.548;11.926;2023-02-27T14:50:06;4.80;99.90
21698;DHT22;11010;49.548;11.926;2023-02-27T14:52:46;5.00;99.90
21698;DHT22;11010;49.548;11.926;2023-02-27T14:55:21;4.80;99.90
21698;DHT22;11010;49.548;11.926;2023-02-27T14:57:56;4.80;99.90
21698;DHT22;11010;49.548;11.926;2023-02-27T15:00:35;4.80;99.90
21698;DHT22;11010;49.548;11.926;2023-02-27T15:03:21;4.80;99.90
21698;DHT22;11010;49.548;11.926;2023-02-27T15:05:51;5.00;99.90
21698;DHT22;11010;49.548;11.926;2023-02-27T15:08:21;4.80;99.90
21698;DHT22;11010;49.548;11.926;2023-02-27T15:10:51;4.50;99.90
21698;DHT22;11010;49.548;11.926;2023-02-27T15:13:37;4.30;99.90
21698;DHT22;11010;49.548;11.926;2023-02-27T15:18:46;4.00;99.90
21698;DHT22;11010;49.548;11.926;2023-02-27T15:21:19;3.80;99.90
21698;DHT22;11010;49.548;11.926;2023-02-27T15:24:00;4.40;99.90
21698;DHT22;11010;49.548;11.926;2023-02-27T15:26:30;4.70;99.90
21698;DHT22;11010;49.548;11.926;2023-02-27T15:28:59;4.40;99.90
21698;DHT22;11010;49.548;11.926;2023-02-27T15:31:28;4.30;99.90
21698;DHT22;11010;49.548;11.926;2023-02-27T15:33:59;4.10;99.90
21698;DHT22;11010;49.548;11.926;2023-02-27T15:36:34;3.60;99.90
21698;DHT22;11010;49.548;11.926;2023-02-27T15:41:32;3.80;99.90
21698;DHT22;11010;49.548;11.926;2023-02-27T15:44:01;3.40;99.90
21698;DHT22;11010;49.548;11.926;2023-02-27T15:46:29;3.50;99.90
21698;DHT22;11010;49.548;11.926;2023-02-27T15:48:57;3.60;99.90
21698;DHT22;11010;49.548;11.926;2023-02-27T15:51:25;3.70;99.90
21698;DHT22;11010;49.548;11.926;2023-02-27T15:53:57;3.40;99.90
21698;DHT22;11010;49.548;11.926;2023-02-27T15:56:29;3.40;99.90
21698;DHT22;11010;49.548;11.926;2023-02-27T15:58:58;3.20;99.90
21698;DHT22;11010;49.548;11.926;2023-02-27T16:01:29;3.00;99.90
21698;DHT22;11010;49.548;11.926;2023-02-27T16:04:04;3.10;99.90
21698;DHT22;11010;49.548;11.926;2023-02-27T16:06:38;3.10;99.90
21698;DHT22;11010;49.548;11.926;2023-02-27T16:11:47;2.50;99.90
21698;DHT22;11010;49.548;11.926;2023-02-27T16:14:35;2.60;99.90
21698;DHT22;11010;49.548;11.926;2023-02-27T16:17:02;2.50;99.90
21698;DHT22;11010;49.548;11.926;2023-02-27T16:19:30;2.40;99.90
21698;DHT22;11010;49.548;11.926;2023-02-27T16:22:03;2.30;99.90
21698;DHT22;11010;49.548;11.926;2023-02-27T16:24:32;2.20;99.90
21698;DHT22;11010;49.548;11.926;2023-02-27T16:26:59;2.20;99.90
21698;DHT22;11010;49.548;11.926;2023-02-27T16:29:34;2.30;99.90
21698;DHT22;11010;49.548;11.926;2023-02-27T16:32:02;2.20;99.90
21698;DHT22;11010;49.548;11.926;2023-02-27T16:34:39;2.30;99.90
21698;DHT22;11010;49.548;11.926;2023-02-27T16:37:25;2.10;99.90
21698;DHT22;11010;49.548;11.926;2023-02-27T16:39:53;2.30;99.90
21698;DHT22;11010;49.548;11.926;2023-02-27T16:42:20;2.40;99.90
21698;DHT22;11010;49.548;11.926;2023-02-27T16:44:48;2.40;99.90
21698;DHT22;11010;49.548;11.926;2023-02-27T16:47:15;2.40;99.90
21698;DHT22;11010;49.548;11.926;2023-02-27T16:49:42;2.40;99.90
21698;DHT22;11010;49.548;11.926;2023-02-27T16:52:11;2.40;99.90
21698;DHT22;11010;49.548;11.926;2023-02-27T16:54:38;2.10;99.90
21698;DHT22;11010;49.548;11.926;2023-02-27T16:57:05;2.20;99.90
21698;DHT22;11010;49.548;11.926;2023-02-27T16:59:37;2.20;99.90
21698;DHT22;11010;49.548;11.926;2023-02-27T17:02:12;2.00;99.90
21698;DHT22;11010;49.548;11.926;2023-02-27T17:04:40;1.80;99.90
21698;DHT22;11010;49.548;11.926;2023-02-27T17:07:15;1.80;99.90
21698;DHT22;11010;49.548;11.926;2023-02-27T17:09:46;2.00;99.90
21698;DHT22;11010;49.548;11.926;2023-02-27T17:12:13;2.20;99.90
21698;DHT22;11010;49.548;11.926;2023-02-27T17:14:40;2.10;99.90
21698;DHT22;11010;49.548;11.926;2023-02-27T17:17:08;2.20;99.90
21698;DHT22;11010;49.548;11.926;2023-02-27T17:19:37;2.10;99.90
21698;DHT22;11010;49.548;11.926;2023-02-27T17:22:04;2.10;99.90
21698;DHT22;11010;49.548;11.926;2023-02-27T17:24:32;2.20;99.90
21698;DHT22;11010;49.548;11.926;2023-02-27T17:26:59;2.20;99.90
21698;DHT22;11010;49.548;11.926;2023-02-27T17:29:26;2.30;99.90
21698;DHT22;11010;49.548;11.926;2023-02-27T17:31:54;2.30;99.90
21698;DHT22;11010;49.548;11.926;2023-02-27T17:34:22;2.00;99.90
21698;DHT22;11010;49.548;11.926;2023-02-27T17:36:49;2.00;99.90
21698;DHT22;11010;49.548;11.926;2023-02-27T17:39:16;2.00;99.90
21698;DHT22;11010;49.548;11.926;2023-02-27T17:41:44;2.10;99.90
21698;DHT22;11010;49.548;11.926;2023-02-27T17:44:12;2.00;99.90
21698;DHT22;11010;49.548;11.926;2023-02-27T17:46:40;2.10;99.90
21698;DHT22;11010;49.548;11.926;2023-02-27T17:49:07;2.20;99.90
21698;DHT22;11010;49.548;11.926;2023-02-27T17:51:35;2.10;99.90
21698;DHT22;11010;49.548;11.926;2023-02-27T17:54:04;1.90;99.90
21698;DHT22;11010;49.548;11.926;2023-02-27T17:56:32;1.70;99.90
21698;DHT22;11010;49.548;11.926;2023-02-27T17:59:02;1.80;99.90
21698;DHT22;11010;49.548;11.926;2023-02-27T18:01:29;1.70;99.90
21698;DHT22;11010;49.548;11.926;2023-02-27T18:03:57;1.80;99.90
21698;DHT22;11010;49.548;11.926;2023-02-27T18:06:24;1.70;99.90
21698;DHT22;11010;49.548;11.926;2023-02-27T18:08:51;1.70;99.90
21698;DHT22;11010;49.548;11.926;2023-02-27T18:11:19;1.70;99.90
21698;DHT22;11010;49.548;11.926;2023-02-27T18:13:47;1.70;99.90
21698;DHT22;11010;49.548;11.926;2023-02-27T18:16:15;1.70;99.90
21698;DHT22;11010;49.548;11.926;2023-02-27T18:18:42;1.70;99.90
21698;DHT22;11010;49.548;11.926;2023-02-27T18:21:15;1.40;99.90
21698;DHT22;11010;49.548;11.926;2023-02-27T18:23:43;1.60;99.90
21698;DHT22;11010;49.548;11.926;2023-02-27T18:26:15;1.60;99.90
21698;DHT22;11010;49.548;11.926;2023-02-27T18:29:00;1.40;99.90
21698;DHT22;11010;49.548;11.926;2023-02-27T18:31:31;1.50;99.90
21698;DHT22;11010;49.548;11.926;2023-02-27T18:33:59;1.60;99.90
21698;DHT22;11010;49.548;11.926;2023-02-27T18:36:27;1.60;99.90
21698;DHT22;11010;49.548;11.926;2023-02-27T18:38:55;1.80;99.90
21698;DHT22;11010;49.548;11.926;2023-02-27T18:41:22;1.70;99.90
21698;DHT22;11010;49.548;11.926;2023-02-27T18:43:49;1.50;99.90
21698;DHT22;11010;49.548;11.926;2023-02-27T18:46:17;1.40;99.90
21698;DHT22;11010;49.548;11.926;2023-02-27T18:48:45;1.60;99.90
21698;DHT22;11010;49.548;11.926;2023-02-27T18:51:14;1.40;99.90
21698;DHT22;11010;49.548;11.926;2023-02-27T18:53:43;1.40;99.90
21698;DHT22;11010;49.548;11.926;2023-02-27T18:56:12;1.10;99.90